createdAt,value
2022-11-19T00:00:52.854Z,98.52
2022-11-19T00:01:52.882Z,98.57
2022-11-19T00:02:52.831Z,98.63
2022-11-19T00:03:53.396Z,98.63
2022-11-19T00:04:52.807Z,98.42
2022-11-19T00:05:52.791Z,98.21
2022-11-19T00:06:52.780Z,98.21
2022-11-19T00:07:52.765Z,98.21
2022-11-19T00:08:52.761Z,98.11
2022-11-19T00:09:52.741Z,98.01
2022-11-19T00:11:52.715Z,97.33
2022-11-19T00:12:52.704Z,97.22
2022-11-19T00:13:52.717Z,97.22
2022-11-19T00:14:52.680Z,97.02
2022-11-19T00:15:52.668Z,96.50
2022-11-19T00:16:52.655Z,96.13
2022-11-19T00:17:52.637Z,96.03
2022-11-19T00:18:52.627Z,95.83
2022-11-19T00:19:52.612Z,96.13
2022-11-19T00:20:52.601Z,96.34
2022-11-19T00:22:52.573Z,96.86
2022-11-19T00:23:52.560Z,96.65
2022-11-19T00:24:52.548Z,96.65
2022-11-19T00:25:52.532Z,96.75
2022-11-19T00:26:52.520Z,96.75
2022-11-19T00:27:52.518Z,96.80
2022-11-19T00:28:52.495Z,96.80
2022-11-19T00:29:52.507Z,96.80
2022-11-19T00:30:52.469Z,96.33
2022-11-19T00:31:52.452Z,96.43
2022-11-19T00:33:52.427Z,96.53
2022-11-19T00:34:52.416Z,96.64
2022-11-19T00:35:52.402Z,96.64
2022-11-19T00:36:52.391Z,96.64
2022-11-19T00:37:52.374Z,96.64
2022-11-19T00:38:52.365Z,96.64
2022-11-19T00:39:52.349Z,96.64
2022-11-19T00:40:52.339Z,96.74
2022-11-19T00:41:52.324Z,96.85
2022-11-19T00:42:52.312Z,96.95
2022-11-19T00:44:52.288Z,96.58
2022-11-19T00:45:52.296Z,96.16
2022-11-19T00:46:52.270Z,96.16
2022-11-19T00:47:52.243Z,96.47
2022-11-19T00:48:52.233Z,96.58
2022-11-19T00:49:52.218Z,96.68
2022-11-19T00:50:52.209Z,96.68
2022-11-19T00:51:52.189Z,96.68
2022-11-19T00:52:52.181Z,96.37
2022-11-19T00:53:52.163Z,96.16
2022-11-19T00:55:52.136Z,96.58
2022-11-19T00:56:52.126Z,96.58
2022-11-19T00:57:52.112Z,96.58
2022-11-19T00:58:52.105Z,96.27
2022-11-19T00:59:52.085Z,96.16
2022-11-19T01:00:52.129Z,96.16
2022-11-19T01:01:52.080Z,96.47
2022-11-19T01:02:52.044Z,96.58
2022-11-19T01:03:52.030Z,96.47
2022-11-19T01:04:52.018Z,96.58
2022-11-19T01:06:51.992Z,96.37
2022-11-19T01:07:51.976Z,96.37
2022-11-19T01:08:51.966Z,96.47
2022-11-19T01:09:51.949Z,96.37
2022-11-19T01:10:51.943Z,96.52
2022-11-19T01:11:51.926Z,96.11
2022-11-19T01:12:51.914Z,96.11
2022-11-19T01:13:51.896Z,96.11
2022-11-19T01:14:51.884Z,95.84
2022-11-19T01:15:51.868Z,96.15
2022-11-19T01:17:51.870Z,96.05
2022-11-19T01:18:51.830Z,96.36
2022-11-19T01:19:51.816Z,96.50
2022-11-19T01:20:51.805Z,96.61
2022-11-19T01:21:51.795Z,96.40
2022-11-19T01:22:51.779Z,96.34
2022-11-19T01:23:51.768Z,96.34
2022-11-19T01:24:51.754Z,96.44
2022-11-19T01:25:51.742Z,96.34
2022-11-19T01:26:51.727Z,96.34
2022-11-19T01:28:51.700Z,96.44
2022-11-19T01:29:51.686Z,96.24
2022-11-19T01:30:51.675Z,96.55
2022-11-19T01:31:51.661Z,96.44
2022-11-19T01:32:51.649Z,96.44
2022-11-19T01:33:51.665Z,95.66
2022-11-19T01:34:51.628Z,95.87
2022-11-19T01:35:51.612Z,95.77
2022-11-19T01:36:51.599Z,95.87
2022-11-19T01:37:51.587Z,96.18
2022-11-19T01:39:51.563Z,96.49
2022-11-19T01:40:51.550Z,96.22
2022-11-19T01:41:51.536Z,96.33
2022-11-19T01:42:51.526Z,96.58
2022-11-19T01:43:51.510Z,96.64
2022-11-19T01:44:51.500Z,96.74
2022-11-19T01:45:51.486Z,96.85
2022-11-19T01:46:51.475Z,96.85
2022-11-19T01:47:51.464Z,96.95
2022-11-19T01:48:51.452Z,96.64
2022-11-19T01:50:51.428Z,96.58
2022-11-19T01:51:51.417Z,96.68
2022-11-19T01:52:51.406Z,96.89
2022-11-19T01:53:51.390Z,97.05
2022-11-19T01:54:51.378Z,97.20
2022-11-19T01:55:51.366Z,97.30
2022-11-19T01:56:51.356Z,97.30
2022-11-19T01:57:51.342Z,97.51
2022-11-19T01:58:51.331Z,97.78
2022-11-19T01:59:51.317Z,97.47
2022-11-19T02:01:51.293Z,97.20
2022-11-19T02:02:51.283Z,97.47
2022-11-19T02:03:51.269Z,97.20
2022-11-19T02:04:51.259Z,96.78
2022-11-19T02:05:51.267Z,96.68
2022-11-19T02:06:51.234Z,96.89
2022-11-19T02:07:51.220Z,96.68
2022-11-19T02:08:51.210Z,97.10
2022-11-19T02:09:51.203Z,96.99
2022-11-19T02:10:51.187Z,96.89
2022-11-19T02:12:51.162Z,96.68
2022-11-19T02:13:51.150Z,96.58
2022-11-19T02:14:54.880Z,96.78
2022-11-19T02:15:51.122Z,96.78
2022-11-19T02:16:51.112Z,96.58
2022-11-19T02:17:51.101Z,96.68
2022-11-19T02:18:51.097Z,96.58
2022-11-19T02:19:51.071Z,96.78
2022-11-19T02:20:51.060Z,96.58
2022-11-19T02:21:51.069Z,96.78
2022-11-19T02:23:51.022Z,97.10
2022-11-19T02:24:51.011Z,97.10
2022-11-19T02:25:50.996Z,97.30
2022-11-19T02:26:50.986Z,97.10
2022-11-19T02:27:50.973Z,96.89
2022-11-19T02:28:50.962Z,96.99
2022-11-19T02:29:50.948Z,96.89
2022-11-19T02:30:50.937Z,97.20
2022-11-19T02:31:50.924Z,97.20
2022-11-19T02:32:50.915Z,97.20
2022-11-19T02:34:50.891Z,97.10
2022-11-19T02:35:50.874Z,96.99
2022-11-19T02:36:50.865Z,97.10
2022-11-19T02:37:50.878Z,97.10
2022-11-19T02:38:50.840Z,97.20
2022-11-19T02:39:50.828Z,96.89
2022-11-19T02:40:50.815Z,96.78
2022-11-19T02:41:50.801Z,96.83
2022-11-19T02:42:50.790Z,96.93
2022-11-19T02:43:50.777Z,96.99
2022-11-19T02:45:50.755Z,96.62
2022-11-19T02:46:50.741Z,96.83
2022-11-19T02:47:50.726Z,96.89
2022-11-19T02:48:50.714Z,96.99
2022-11-19T02:49:50.701Z,97.10
2022-11-19T02:50:50.690Z,97.03
2022-11-19T02:51:50.677Z,96.89
2022-11-19T02:52:50.665Z,96.83
2022-11-19T02:53:50.678Z,96.72
2022-11-19T02:54:50.646Z,96.83
2022-11-19T02:56:50.618Z,96.93
2022-11-19T02:57:50.605Z,97.14
2022-11-19T02:58:50.593Z,97.24
2022-11-19T02:59:50.582Z,97.24
2022-11-19T03:00:50.570Z,96.93
2022-11-19T03:01:50.618Z,96.72
2022-11-19T03:02:50.545Z,96.62
2022-11-19T03:03:50.532Z,96.41
2022-11-19T03:04:50.527Z,96.46
2022-11-19T03:05:50.512Z,96.35
2022-11-19T03:07:50.489Z,96.56
2022-11-19T03:08:50.472Z,96.46
2022-11-19T03:09:50.480Z,96.56
2022-11-19T03:10:50.446Z,96.67
2022-11-19T03:11:50.432Z,96.77
2022-11-19T03:12:50.420Z,96.56
2022-11-19T03:13:50.407Z,96.67
2022-11-19T03:14:50.398Z,96.88
2022-11-19T03:15:50.383Z,96.77
2022-11-19T03:16:50.372Z,96.77
2022-11-19T03:18:50.347Z,96.98
2022-11-19T03:19:50.332Z,96.88
2022-11-19T03:20:50.320Z,97.08
2022-11-19T03:21:50.308Z,97.08
2022-11-19T03:22:50.295Z,96.98
2022-11-19T03:23:50.283Z,97.39
2022-11-19T03:24:50.270Z,97.60
2022-11-19T03:25:50.282Z,97.50
2022-11-19T03:26:50.245Z,97.60
2022-11-19T03:27:50.231Z,97.60
2022-11-19T03:29:50.207Z,97.71
2022-11-19T03:30:50.194Z,97.77
2022-11-19T03:31:50.181Z,97.50
2022-11-19T03:32:50.171Z,97.71
2022-11-19T03:33:50.155Z,97.39
2022-11-19T03:34:50.145Z,97.50
2022-11-19T03:35:50.131Z,97.50
2022-11-19T03:36:50.120Z,97.44
2022-11-19T03:37:50.106Z,97.44
2022-11-19T03:38:50.096Z,97.54
2022-11-19T03:40:50.068Z,97.44
2022-11-19T03:41:50.077Z,97.33
2022-11-19T03:42:50.044Z,97.54
2022-11-19T03:43:50.030Z,97.75
2022-11-19T03:44:50.019Z,97.75
2022-11-19T03:45:50.004Z,97.96
2022-11-19T03:46:49.992Z,97.75
2022-11-19T03:47:49.979Z,97.65
2022-11-19T03:48:49.969Z,97.54
2022-11-19T03:49:49.953Z,97.85
2022-11-19T03:51:49.929Z,97.75
2022-11-19T03:52:49.916Z,97.65
2022-11-19T03:53:49.903Z,97.54
2022-11-19T03:54:49.899Z,97.54
2022-11-19T03:55:49.876Z,97.38
2022-11-19T03:56:49.866Z,97.58
2022-11-19T03:57:49.871Z,97.38
2022-11-19T03:58:49.840Z,97.44
2022-11-19T03:59:49.830Z,97.17
2022-11-19T04:00:49.818Z,96.96
2022-11-19T04:02:49.788Z,97.38
2022-11-19T04:03:49.775Z,97.38
2022-11-19T04:04:49.762Z,97.48
2022-11-19T04:05:49.749Z,97.58
2022-11-19T04:06:49.737Z,97.58
2022-11-19T04:07:49.722Z,97.48
2022-11-19T04:08:49.712Z,97.58
2022-11-19T04:09:49.698Z,97.38
2022-11-19T04:10:49.687Z,97.27
2022-11-19T04:13:13.447Z,97.69
2022-11-19T04:14:13.414Z,97.58
2022-11-19T04:15:13.402Z,97.58
2022-11-19T04:16:13.386Z,97.43
2022-11-19T04:17:13.373Z,97.69
2022-11-19T04:18:13.361Z,97.69
2022-11-19T04:19:13.347Z,97.53
2022-11-19T04:20:13.338Z,97.63
2022-11-19T04:21:13.321Z,97.63
2022-11-19T04:22:13.311Z,97.58
2022-11-19T04:24:13.284Z,97.80
2022-11-19T04:25:13.270Z,97.58
2022-11-19T04:26:13.260Z,97.32
2022-11-19T04:27:13.246Z,97.43
2022-11-19T04:28:13.235Z,97.53
2022-11-19T04:29:13.245Z,97.43
2022-11-19T04:30:13.209Z,97.74
2022-11-19T04:31:17.675Z,98.01
2022-11-19T04:32:13.185Z,98.01
2022-11-19T04:33:13.173Z,97.74
2022-11-19T04:35:13.145Z,97.74
2022-11-19T04:36:13.134Z,97.84
2022-11-19T04:37:13.131Z,97.84
2022-11-19T04:38:13.111Z,97.63
2022-11-19T04:39:13.097Z,97.84
2022-11-19T04:40:13.083Z,97.84
2022-11-19T04:41:13.069Z,97.94
2022-11-19T04:42:13.057Z,97.94
2022-11-19T04:43:13.045Z,97.84
2022-11-19T04:44:13.031Z,97.84
2022-11-19T04:46:13.008Z,97.74
2022-11-19T04:47:12.994Z,98.05
2022-11-19T04:48:12.987Z,98.05
